Flight Track Log - Related Links

Times and Time Zones

All times are in EST time to prevent confusion due to time zone crossing. See the N510SR flight status page for this flight to view local times or setup timezone preferences in your user account.

Time Position Orientation Groundspeed Altitude Reporting Facility
EST Latitude Longitude Course Direction KTS MPH feet Rate Location/Type
Tue 08:20:00 PM 14.0151 -60.8246 306° West  Level Estimated
Tue 08:21:00 PM 14.0808 -60.9184 306° West  Level Estimated
Tue 08:22:00 PM 14.1464 -61.0122 306° West  Level Estimated
Tue 08:23:00 PM 14.2120 -61.1061 306° West  Level Estimated
Tue 08:24:00 PM 14.2775 -61.2001 306° West  Level Estimated
Tue 08:25:00 PM 14.3430 -61.2941 306° West  Level Estimated
Tue 08:26:00 PM 14.4085 -61.3881 306° West  Level Estimated
Tue 08:27:00 PM 14.4739 -61.4822 306° West  Level Estimated
Tue 08:28:00 PM 14.5393 -61.5764 306° West  Level Estimated
Tue 08:29:00 PM 14.6047 -61.6706 306° West  Level Estimated
Tue 08:30:00 PM 14.6700 -61.7649 306° West  Level Estimated
Tue 08:31:00 PM 14.7353 -61.8592 306° West  Level Estimated
Tue 08:32:00 PM 14.8005 -61.9536 306° West  Level Estimated
Tue 08:33:00 PM 14.8657 -62.0480 306° West  Level Estimated
Tue 08:34:00 PM 14.9309 -62.1425 306° West  Level Estimated
Tue 08:35:00 PM 14.9960 -62.2371 305° West  Level Estimated
Tue 08:36:00 PM 15.0611 -62.3317 305° West  Level Estimated
Tue 08:37:00 PM 15.1262 -62.4263 305° West  Level Estimated
Tue 08:38:00 PM 15.1912 -62.5211 305° West  Level Estimated
Tue 08:39:00 PM 15.2561 -62.6159 305° West  Level Estimated
Tue 08:40:00 PM 15.3211 -62.7107 305° West  Level Estimated
Tue 08:41:00 PM 15.3860 -62.8056 305° West  Level Estimated
Tue 08:42:00 PM 15.4508 -62.9006 305° West  Level Estimated
Tue 08:43:00 PM 15.5156 -62.9956 305° West  Level Estimated
Tue 08:44:00 PM 15.5804 -63.0907 305° West  Level Estimated
Tue 08:45:00 PM 15.6451 -63.1858 305° West  Level Estimated
Tue 08:46:00 PM 15.7098 -63.2810 305° West  Level Estimated
Tue 08:47:00 PM 15.7745 -63.3763 305° West  Level Estimated
Tue 08:48:00 PM 15.8391 -63.4716 305° West  Level Estimated
Tue 08:49:00 PM 15.9036 -63.5670 305° West  Level Estimated
Tue 08:50:00 PM 15.9681 -63.6624 305° West  Level Estimated
Tue 08:50:30 PM 16.1000 -62.7667 305° West 460 529 43,000  Level San Juan Center
Tue 08:51:00 PM 16.0326 -63.7580 305° West  Level Estimated
Tue 08:51:30 PM 16.1833 -62.8667 311° West 460 529 43,000  Level San Juan Center
Tue 08:52:00 PM 16.0971 -63.8535 305° West  Level Estimated
Tue 08:52:31 PM 16.2667 -62.9667 311° West 450 518 43,000  Level San Juan Center
Tue 08:53:00 PM 16.1615 -63.9492 305° West  Level Estimated
Tue 08:53:31 PM 16.3333 -63.0667 305° West 450 518 43,000  Level San Juan Center
Tue 08:54:00 PM 16.2258 -64.0449 305° West  Level Estimated
Tue 08:54:31 PM 16.4167 -63.1667 311° West 450 518 43,000  Level San Juan Center
Tue 08:55:00 PM 16.2901 -64.1406 305° West  Level Estimated
Tue 08:55:31 PM 16.4667 -63.2833 294° West 430 495 43,000  Level San Juan Center
Tue 08:56:31 PM 16.5333 -63.3833 305° West 440 506 43,000  Level San Juan Center
Tue 08:57:31 PM 16.6167 -63.4833 311° West 440 506 43,000  Level San Juan Center
Tue 08:58:31 PM 16.6833 -63.6000 301° West 450 518 43,000  Level San Juan Center
Tue 08:59:31 PM 16.7500 -63.7000 305° West 440 506 43,000  Level San Juan Center
Tue 09:00:31 PM 16.8333 -63.8167 307° West 450 518 43,000  Level San Juan Center
Tue 09:01:31 PM 16.9000 -63.9167 305° West 450 518 43,000  Level San Juan Center
Tue 09:02:32 PM 16.9667 -64.0333 301° West 450 518 43,000  Level San Juan Center
Tue 09:03:32 PM 17.0333 -64.1333 305° West 450 518 43,000  Level San Juan Center
Tue 09:04:32 PM 17.1167 -64.2500 307° West 450 518 43,000  Level San Juan Center
Tue 09:05:32 PM 17.1833 -64.3500 305° West 450 518 43,000  Level San Juan Center
Tue 09:06:32 PM 17.2500 -64.4500 305° West 450 518 43,000  Level San Juan Center
Tue 09:07:32 PM 17.3167 -64.5667 301° West 450 518 43,000  Level San Juan Center
Tue 09:08:33 PM 17.3833 -64.6833 301° West 450 518 43,000  Level San Juan Center
Tue 09:09:33 PM 17.4667 -64.7833 311° West 440 506 43,000  Level San Juan Center
Tue 09:10:33 PM 17.5333 -64.9000 301° West 450 518 43,000  Level San Juan Center
Tue 09:11:33 PM 17.6000 -65.0000 305° West 450 518 43,000  Level San Juan Center
Tue 09:12:33 PM 17.6667 -65.1000 305° West 450 518 43,000  Level San Juan Center
Tue 09:13:33 PM 17.7333 -65.2167 301° West 450 518 43,000  Level San Juan Center
Tue 09:14:33 PM 17.8167 -65.3333 307° West 450 518 43,000  Level San Juan Center
Tue 09:15:33 PM 17.8833 -65.4333 305° West 450 518 43,000  Level San Juan Center
Tue 09:16:33 PM 17.9500 -65.5500 301° West 450 518 43,000  Level San Juan Center
Tue 09:17:33 PM 18.0167 -65.6500 305° West 460 529 43,000  Level San Juan Center
Tue 09:18:34 PM 18.1000 -65.7667 307° West 440 506 43,000  Level San Juan Center
Tue 09:19:34 PM 18.1667 -65.8833 301° West 460 529 43,000  Level San Juan Center
Tue 09:20:34 PM 18.2333 -65.9833 305° West 460 529 43,000  Level San Juan Center
Tue 09:21:34 PM 18.3000 -66.1000 301° West 460 529 43,000  Level San Juan Center
Tue 09:22:34 PM 18.3833 -66.2167 307° West 460 529 43,000  Level San Juan Center
Tue 09:23:35 PM 18.4500 -66.3167 305° West 450 518 43,000  Level San Juan Center
Tue 09:24:35 PM 18.5167 -66.4333 301° West 450 518 43,000  Level San Juan Center
Tue 09:25:34 PM 18.5833 -66.5333 305° West 450 518 43,000  Level San Juan Center
Tue 09:26:35 PM 18.6500 -66.6500 301° West 440 506 43,000  Level San Juan Center
Tue 09:27:35 PM 18.7167 -66.7667 301° West 440 506 43,000  Level San Juan Center
Tue 09:28:35 PM 18.8000 -66.8667 311° West 440 506 43,000  Level San Juan Center
Tue 09:29:35 PM 18.8667 -66.9833 301° West 440 506 43,000  Level San Juan Center
Tue 09:30:35 PM 18.9333 -67.0833 305° West 440 506 43,000  Level San Juan Center
Tue 09:31:35 PM 19.0000 -67.1833 305° West 440 506 43,000  Level San Juan Center
Tue 09:32:35 PM 19.0667 -67.3000 301° West 440 506 43,000  Level San Juan Center
Tue 09:33:35 PM 19.1333 -67.4000 305° West 440 506 43,000  Level San Juan Center
Tue 09:34:35 PM 19.2000 -67.5167 301° West 450 518 43,000  Level San Juan Center
Tue 09:35:36 PM 19.2667 -67.6333 301° West 450 518 43,000  Level San Juan Center
Tue 09:36:36 PM 19.3333 -67.7333 305° West 440 506 43,000  Level San Juan Center
Tue 09:37:36 PM 19.4000 -67.8500 301° West 450 518 43,000  Level San Juan Center
Tue 09:38:36 PM 19.4667 -67.9500 305° West 450 518 43,000  Level San Juan Center
Tue 09:39:36 PM 19.5333 -68.0667 301° West 440 506 43,000  Level San Juan Center
Tue 09:40:36 PM 19.6167 -68.1667 312° West 440 506 43,000  Level San Juan Center
Tue 09:41:37 PM 19.6833 -68.2833 301° West 450 518 43,000 54 Level San Juan Center
Tue 09:42:27 PM 19.7486 -68.3853 304° West 450 518 43,100 55 Climbing Miami Center
Tue 09:43:27 PM 19.8169 -68.4956 303° West 444 511 43,100  Level Miami Center
Tue 09:44:27 PM 19.8811 -68.6081 301° West 491 565 43,100  Level Miami Center
Tue 09:45:27 PM 19.9453 -68.7189 302° West 461 531 43,100  Level Miami Center
Tue 09:46:27 PM 20.0136 -68.8314 303° West 456 525 43,100  Level Miami Center
Tue 09:47:27 PM 20.0736 -68.9492 298° West 456 525 43,100  Level Miami Center
Tue 09:48:27 PM 20.1356 -69.0625 300° West 451 519 43,100  Level Miami Center
Tue 09:49:27 PM 20.1953 -69.1781 299° West 445 512 43,100  Level Miami Center
Tue 09:50:27 PM 20.2592 -69.2914 301° West 445 512 43,100  Level Miami Center
Tue 09:51:27 PM 20.3211 -69.4072 300° West 445 512 43,100  Level Miami Center
Tue 09:52:27 PM 20.3847 -69.5208 301° West 445 512 43,100  Level Miami Center
Tue 09:53:27 PM 20.4442 -69.6325 300° West 445 512 43,100  Level Miami Center
Tue 09:54:27 PM 20.5058 -69.7486 300° West 445 512 43,100  Level Miami Center
Tue 09:55:27 PM 20.5672 -69.8628 300° West 445 512 43,100  Level Miami Center
Tue 09:56:27 PM 20.6306 -69.9769 301° West 445 512 43,100  Level Miami Center
Tue 09:57:27 PM 20.6878 -70.0914 298° West 445 512 43,100  Level Miami Center
Tue 09:58:27 PM 20.7511 -70.2056 301° West 445 512 43,100  Level Miami Center
Tue 09:59:27 PM 20.8122 -70.3222 299° West 445 512 43,100  Level Miami Center
Tue 10:00:27 PM 20.8733 -70.4369 300° West 445 512 43,100  Level Miami Center
Tue 10:01:27 PM 20.9253 -70.5364 299° West 445 512 43,100  Level Miami Center
Tue 10:02:27 PM 20.9864 -70.6514 300° West 445 512 43,100  Level Miami Center
Tue 10:03:27 PM 21.0450 -70.7664 299° West 445 512 43,100  Level Miami Center
Tue 10:04:27 PM 21.1058 -70.8814 300° West 445 512 43,100  Level Miami Center
Tue 10:05:27 PM 21.1667 -70.9942 300° West 445 512 43,100  Level Miami Center
Tue 10:06:27 PM 21.2231 -71.1119 297° West 445 512 43,100  Level Miami Center
Tue 10:07:27 PM 21.2797 -71.2297 297° West 445 512 43,100  Level Miami Center
Tue 10:08:27 PM 21.3444 -71.3494 300° West 451 519 43,100  Level Miami Center
Tue 10:09:27 PM 21.4067 -71.4603 301° West 451 519 43,100  Level Miami Center
Tue 10:10:29 PM 21.4669 -71.5739 300° West 445 512 43,100  Level Miami Center
Tue 10:11:29 PM 21.5272 -71.6875 300° West 440 506 43,100  Level Miami Center
Tue 10:12:29 PM 21.5919 -71.8097 300° West 435 501 43,100  Level Miami Center
Tue 10:13:29 PM 21.6478 -71.9214 298° West 430 495 43,100  Level Miami Center
Tue 10:14:29 PM 21.7078 -72.0353 300° West 430 495 43,100  Level Miami Center
Tue 10:15:27 PM 21.7675 -72.1494 299° West 430 495 43,100  Level Miami Center
Tue 10:16:28 PM 21.8253 -72.2636 299° West 430 495 43,100  Level Miami Center
Tue 10:17:29 PM 21.8850 -72.3756 300° West 430 495 43,100  Level Miami Center
Tue 10:18:29 PM 21.9403 -72.4878 298° West 430 495 43,100  Level Miami Center
Tue 10:19:28 PM 22.0000 -72.6022 299° West 430 495 43,100  Level Miami Center
Tue 10:20:28 PM 22.0575 -72.7167 298° West 430 495 43,100  Level Miami Center
Tue 10:21:29 PM 22.1169 -72.8336 299° West 430 495 43,100  Level Miami Center
Tue 10:22:27 PM 22.1783 -72.9461 301° West 430 495 43,100  Level Miami Center
Tue 10:23:27 PM 22.2356 -73.0631 298° West 430 495 43,100  Level Miami Center
Tue 10:24:28 PM 22.2928 -73.1783 298° West 430 495 43,100  Level Miami Center
Tue 10:25:27 PM 22.3519 -73.2933 299° West 430 495 43,100  Level Miami Center
Tue 10:26:28 PM 22.4089 -73.4108 298° West 430 495 43,100  Level Miami Center
Tue 10:27:29 PM 22.4636 -73.5217 298° West 425 489 43,100  Level Miami Center
Tue 10:28:27 PM 22.5203 -73.6394 298° West 431 496 43,100  Level Miami Center
Tue 10:29:28 PM 22.5772 -73.7572 298° West 436 502 43,100  Level Miami Center
Tue 10:30:28 PM 22.6358 -73.8750 298° West 436 502 43,100  Level Miami Center
Tue 10:31:29 PM 22.6989 -73.9928 300° West 446 513 43,100  Level Miami Center
Tue 10:32:30 PM 22.7553 -74.1108 297° West 446 513 43,100  Level Miami Center
Tue 10:33:27 PM 22.8158 -74.2289 299° West 446 513 43,100  Level Miami Center
Tue 10:34:27 PM 22.8744 -74.3494 298° West 446 513 43,100  Level Miami Center
Tue 10:35:28 PM 22.9306 -74.4658 298° West 446 513 43,100  Level Miami Center
Tue 10:36:28 PM 22.9889 -74.5819 299° West 441 507 43,100  Level Miami Center
Tue 10:37:27 PM 23.0469 -74.6983 298° West 446 513 43,100  Level Miami Center
Tue 10:38:29 PM 23.1050 -74.8147 298° West 446 513 43,100  Level Miami Center
Tue 10:39:29 PM 23.1608 -74.9336 297° West 446 513 43,100  Level Miami Center
Tue 10:40:27 PM 23.2186 -75.0503 298° West 446 513 43,100  Level Miami Center
Tue 10:41:27 PM 23.2744 -75.1650 298° West 446 513 43,100  Level Miami Center
Tue 10:42:29 PM 23.3319 -75.2817 298° West 441 507 43,100  Level Miami Center
Tue 10:43:30 PM 23.3897 -75.3967 299° West 435 501 43,100  Level Miami Center
Tue 10:44:27 PM 23.4431 -75.5092 297° West 428 493 43,100  Level Miami Center
Tue 10:45:27 PM 23.5003 -75.6242 299° West 423 487 43,100  Level Miami Center
Tue 10:46:28 PM 23.5639 -75.7414 301° West 435 501 43,100  Level Miami Center
Tue 10:47:27 PM 23.6150 -75.8542 296° West 450 518 43,100  Level Miami Center
Tue 10:48:27 PM 23.6658 -75.9694 296° West 443 510 43,100  Level Miami Center
Tue 10:49:27 PM 23.7186 -76.0872 296° West 437 503 43,100  Level Miami Center
Tue 10:50:28 PM 23.7736 -76.2003 298° West 432 497 43,100  Level Miami Center
Tue 10:51:29 PM 23.8264 -76.3158 297° West 427 491 43,100  Level Miami Center
Tue 10:52:29 PM 23.8831 -76.4317 298° West 427 491 43,100  Level Miami Center
Tue 10:53:27 PM 23.9397 -76.5450 299° West 427 491 43,100  Level Miami Center
Tue 10:54:27 PM 23.9922 -76.6633 296° West 427 491 43,100  Level Miami Center
Tue 10:55:30 PM 24.0467 -76.7792 297° West 427 491 43,100  Level Miami Center
Tue 10:56:27 PM 24.0969 -76.8908 296° West 420 483 43,100  Level Miami Center
Tue 10:57:27 PM 24.1553 -77.0136 298° West 420 483 43,100  Level Miami Center
Tue 10:58:28 PM 24.2094 -77.1278 298° West 420 483 43,100  Level Miami Center
Tue 10:59:28 PM 24.2617 -77.2394 297° West 420 483 43,100  Level Miami Center
Tue 11:00:28 PM 24.3136 -77.3536 297° West 420 483 43,100  Level Miami Center
Tue 11:01:29 PM 24.3653 -77.4681 296° West 420 483 43,100  Level Miami Center
Tue 11:02:29 PM 24.4192 -77.5778 298° West 413 475 43,100  Level Miami Center
Tue 11:03:28 PM 24.4686 -77.6900 296° West 408 470 43,100 -303 Level Miami Center
Tue 11:04:28 PM 24.5225 -77.8044 297° West 408 470 42,500 -885 Descending Miami Center
Tue 11:05:30 PM 24.5739 -77.9169 297° West 408 470 41,300 -1,160 Descending Miami Center
Tue 11:06:27 PM 24.6294 -78.0339 298° West 413 475 40,200 -1,220 Descending Miami Center
Tue 11:07:28 PM 24.6850 -78.1511 298° West 418 481 38,900 -1,200 Descending Miami Center
Tue 11:08:27 PM 24.7361 -78.2683 296° West 429 494 37,800 -1,150 Descending Miami Center
Tue 11:09:28 PM 24.7914 -78.3881 297° West 429 494 36,600 -1,190 Descending Miami Center
Tue 11:10:28 PM 24.8486 -78.5100 297° West 429 494 35,400 -1,714 Descending Miami Center
Tue 11:11:27 PM 24.9056 -78.6344 297° West 440 506 33,200 -2,350 Descending Miami Center
Tue 11:12:28 PM 24.9606 -78.7592 296° West 447 514 30,700 -2,459 Descending Miami Center
Tue 11:13:29 PM 25.0214 -78.8883 297° West 447 514 28,200 -2,380 Descending Miami Center
Tue 11:14:29 PM 25.0761 -79.0064 297° West 445 512 25,900 -2,331 Descending Miami Center
Tue 11:15:30 PM 25.1308 -79.1311 296° West 445 512 23,500 -2,441 Descending Miami Center
Tue 11:16:27 PM 25.1833 -79.2494 296° West 439 505 21,100 -2,350 Descending Miami Center
Tue 11:17:30 PM 25.2336 -79.3675 295° West 439 505 18,800 -2,195 Descending Miami Center
Tue 11:18:30 PM 25.2839 -79.4789 297° West 423 487 16,600 -2,190 Descending Miami Center
Tue 11:18:33 PM 25.2836 -79.4903 268° West 405 466 16,500 -2,364 Descending Miami Center
Tue 11:19:03 PM 25.3119 -79.5483 298° West 398 458 15,300 -2,222 Descending Miami Center
Tue 11:19:27 PM 25.3342 -79.5903 300° West 408 470 14,500 -2,172 Descending Miami Center
Tue 11:20:01 PM 25.3600 -79.6597 292° West 397 457 13,200 -2,100 Descending Miami Center
Tue 11:20:27 PM 25.3822 -79.6994 302° West 403 464 12,400 -1,031 Descending Miami Center
Tue 11:21:05 PM 25.4103 -79.7622 296° West 386 444 12,100 -400 Descending Miami Center
Tue 11:21:27 PM 25.4408 -79.7975 314° West 393 452 12,000 -310 Descending Miami Center
Tue 11:22:03 PM 25.4750 -79.8558 303° West 388 447 11,800 -600 Descending Miami Center
Tue 11:22:27 PM 25.5036 -79.8933 310° West 393 452 11,400 -984 Descending Miami Center
Tue 11:23:04 PM 25.5358 -79.9469 304° West 343 395 10,800 -984 Descending Miami Center
Tue 11:23:28 PM 25.5583 -79.9753 311° West 365 420 10,400 -982 Descending Miami Center
Tue 11:23:59 PM 25.5803 -80.0172 300° West 297 342 9,900 -1,220 Descending Miami Center
Tue 11:24:27 PM 25.6069 -80.0503 312° West 327 376 9,200 -1,385 Descending Miami Center
Tue 11:25:17 PM 25.6431 -80.1133 302° West 291 335 8,100 -1,161 Descending Miami Center
Tue 11:25:29 PM 25.6553 -80.1231 324° Northwest 303 349 8,000 -400 Descending Miami Center
Tue 11:26:02 PM 25.6669 -80.1669 286° West 282 325 7,800 -517 Descending Miami Center
Tue 11:26:27 PM 25.6808 -80.1997 295° West 280 322 7,500 -689 Descending Miami Center
Tue 11:27:03 PM 25.6881 -80.2506 279° West 272 313 7,100 -968 Descending Miami Center
Tue 11:27:29 PM 25.6958 -80.2761 289° West 273 314 6,500 -1,500 Descending Miami Center
Tue 11:28:03 PM 25.6839 -80.3381 258° West 268 308 5,600 -1,525 Descending Miami Center
Tue 11:28:28 PM 25.6792 -80.3542 252° West 268 308 5,000 -1,424 Descending Miami Center
Tue 11:29:02 PM 25.6819 -80.4142 273° West 286 329 4,200 -1,319 Descending Miami Center
Tue 11:29:59 PM 25.7378 -80.4389 338° Northwest 250 288 3,000 -1,241 Descending Miami Center
Tue 11:30:58 PM 25.7967 -80.4222 14° North 218 251 1,800 -902 Descending Miami Center
Tue 11:32:12 PM 25.7961 -80.3575 91° East 170 196 1,000 -711 Descending Miami Center
Tue 11:33:13 PM 25.7994 -80.3092 86° East 145 167 200 -787 Descending Miami Center
Tue 11:35:00 PM 25.7954 -80.2901 77° East  Level Estimated

Login

Don't have an account? Register now (free) for customized features, flight alerts, and more!